Time;durP1;ratioP1;P1;durP2;ratioP2;P2;SDS_P1;SDS_P2;PMS_P1;PMS_P2;Temp;Humidity;BMP_temperature;BMP_pressure;BME280_temperature;BME280_humidity;BME280_pressure;Samples;Min_cycle;Max_cycle;Signal;HPM_P1;HPM_P2
2022/12/02 00:02:24;;;;;;;30.67;13.97;;;2.80;99.90;;;;;;5010432;28;20863;-71
2022/12/02 00:04:55;;;;;;;38.20;13.27;;;2.80;99.90;;;;;;5012727;28;20175;-71
2022/12/02 00:07:21;;;;;;;41.87;13.37;;;2.80;99.90;;;;;;5012652;28;20845;-71
2022/12/02 00:09:47;;;;;;;33.67;15.53;;;2.80;99.90;;;;;;5013504;28;20899;-71
2022/12/02 00:12:15;;;;;;;37.60;14.87;;;2.80;99.90;;;;;;5023469;28;20474;-71
2022/12/02 00:14:41;;;;;;;26.63;13.10;;;2.90;99.90;;;;;;5010629;28;20199;-71
2022/12/02 00:17:06;;;;;;;29.60;14.13;;;2.80;99.90;;;;;;5010538;28;20488;-71
2022/12/02 00:19:32;;;;;;;28.90;13.13;;;2.90;99.90;;;;;;5016685;28;20555;-71
2022/12/02 00:21:57;;;;;;;40.77;12.57;;;2.80;99.90;;;;;;5015546;28;20286;-71
2022/12/02 00:24:23;;;;;;;32.70;13.93;;;2.90;99.90;;;;;;5010087;28;20221;-71
2022/12/02 00:26:48;;;;;;;33.80;12.10;;;2.90;99.90;;;;;;5010719;28;20453;-71
2022/12/02 00:29:14;;;;;;;32.70;13.70;;;2.80;99.90;;;;;;4997105;28;20203;-71
2022/12/02 00:31:40;;;;;;;25.40;12.40;;;2.80;99.90;;;;;;5009991;28;20187;-71
2022/12/02 00:34:05;;;;;;;31.50;14.43;;;2.80;99.90;;;;;;5012983;28;20250;-71
2022/12/02 00:36:31;;;;;;;33.37;13.43;;;2.80;99.90;;;;;;5011096;28;20675;-71
2022/12/02 00:38:57;;;;;;;30.83;12.00;;;2.80;99.90;;;;;;5010114;28;20302;-71
2022/12/02 00:41:23;;;;;;;37.87;12.87;;;2.80;99.90;;;;;;5028549;28;20567;-71
2022/12/02 00:46:34;;;;;;;33.77;13.83;;;2.80;99.90;;;;;;5010813;28;20420;-71
2022/12/02 00:49:03;;;;;;;47.13;14.13;;;2.80;99.90;;;;;;5015178;28;20441;-71
2022/12/02 00:51:29;;;;;;;39.10;13.97;;;2.80;99.90;;;;;;5006983;28;20225;-71
2022/12/02 00:53:55;;;;;;;36.17;15.90;;;2.80;99.90;;;;;;5008019;28;20442;-71
2022/12/02 00:56:20;;;;;;;40.40;15.67;;;2.80;99.90;;;;;;5008787;28;20776;-71
2022/12/02 00:58:46;;;;;;;28.87;13.30;;;2.80;99.90;;;;;;5017699;28;20193;-71
2022/12/02 01:01:11;;;;;;;35.40;14.80;;;2.80;99.90;;;;;;5017204;28;20207;-71
2022/12/02 01:03:37;;;;;;;38.50;15.10;;;2.80;99.90;;;;;;5016882;28;20656;-71
2022/12/02 01:06:03;;;;;;;35.17;12.50;;;2.80;99.90;;;;;;5009592;28;20191;-71
2022/12/02 01:08:29;;;;;;;33.00;12.80;;;2.80;99.90;;;;;;5018947;28;20193;-71
2022/12/02 01:10:55;;;;;;;27.40;13.00;;;2.80;99.90;;;;;;5010586;28;20274;-71
2022/12/02 01:13:22;;;;;;;33.30;13.23;;;2.80;99.90;;;;;;5009112;28;20226;-71
2022/12/02 01:15:47;;;;;;;31.30;15.23;;;2.80;99.90;;;;;;5009915;28;20449;-71
2022/12/02 01:18:13;;;;;;;42.53;15.20;;;2.80;99.90;;;;;;5015872;28;20429;-71
2022/12/02 01:20:38;;;;;;;42.80;14.90;;;2.80;99.90;;;;;;5011586;28;20266;-71
2022/12/02 01:23:04;;;;;;;27.10;13.40;;;2.80;99.90;;;;;;5019608;28;20217;-71
2022/12/02 01:25:29;;;;;;;46.93;16.33;;;2.80;99.90;;;;;;5011256;28;20654;-71
2022/12/02 01:27:55;;;;;;;40.67;15.33;;;2.80;99.90;;;;;;5015191;28;20183;-71
2022/12/02 01:30:21;;;;;;;34.37;14.47;;;2.80;99.90;;;;;;5014656;28;20679;-70
2022/12/02 01:32:46;;;;;;;43.13;15.57;;;2.80;99.90;;;;;;5022269;28;20206;-71
2022/12/02 01:35:12;;;;;;;41.20;17.30;;;2.80;99.90;;;;;;5013537;28;20191;-70
2022/12/02 01:37:38;;;;;;;32.90;13.60;;;2.80;99.90;;;;;;5021470;28;20229;-69
2022/12/02 01:40:05;;;;;;;35.70;14.63;;;2.80;99.90;;;;;;5019193;28;21153;-69
2022/12/02 01:42:32;;;;;;;40.20;17.30;;;2.80;99.90;;;;;;5014738;28;20706;-69
2022/12/02 01:44:57;;;;;;;41.13;14.00;;;2.80;99.90;;;;;;5014276;28;20439;-69
2022/12/02 01:47:23;;;;;;;40.00;14.60;;;2.80;99.90;;;;;;5014624;28;20868;-69
2022/12/02 01:49:50;;;;;;;34.13;14.10;;;2.80;99.90;;;;;;5013923;28;20648;-69
2022/12/02 01:52:15;;;;;;;40.37;15.73;;;2.80;99.90;;;;;;5014088;28;20273;-69
2022/12/02 01:54:41;;;;;;;38.47;16.37;;;2.80;99.90;;;;;;5016068;28;20550;-69
2022/12/02 01:57:11;;;;;;;32.40;14.67;;;2.80;99.90;;;;;;5014096;28;20525;-69
2022/12/02 01:59:37;;;;;;;39.10;14.80;;;2.80;99.90;;;;;;5027218;28;20186;-69
2022/12/02 02:02:23;;;;;;;28.40;13.60;;;2.80;99.90;;;;;;5020802;28;20543;-69
2022/12/02 02:04:48;;;;;;;42.27;14.13;;;2.80;99.90;;;;;;5002909;28;20441;-69
2022/12/02 02:07:14;;;;;;;31.87;15.57;;;2.80;99.90;;;;;;5014417;28;20541;-69
2022/12/02 02:09:39;;;;;;;35.73;13.87;;;2.80;99.90;;;;;;5026915;28;20179;-69
2022/12/02 02:12:05;;;;;;;41.17;14.43;;;2.80;99.90;;;;;;5014004;28;20214;-69
2022/12/02 02:14:30;;;;;;;39.33;14.13;;;2.80;99.90;;;;;;5012461;28;20252;-70
2022/12/02 02:16:56;;;;;;;33.03;14.80;;;2.80;99.90;;;;;;5013193;28;20203;-69
2022/12/02 02:19:22;;;;;;;32.43;15.03;;;2.80;99.90;;;;;;5025722;28;20190;-69
2022/12/02 02:21:50;;;;;;;32.53;14.13;;;2.80;99.90;;;;;;5019272;28;20582;-69
2022/12/02 02:24:16;;;;;;;36.83;16.13;;;2.80;99.90;;;;;;5011948;28;20258;-69
2022/12/02 02:26:41;;;;;;;36.77;15.83;;;2.80;99.90;;;;;;5013667;28;20858;-69
2022/12/02 02:29:07;;;;;;;38.53;14.93;;;2.80;99.90;;;;;;4999641;28;20225;-69
2022/12/02 02:31:33;;;;;;;34.63;14.57;;;2.80;99.90;;;;;;5012910;28;20183;-69
2022/12/02 02:33:59;;;;;;;26.23;12.60;;;2.80;99.90;;;;;;5013286;28;20187;-69
2022/12/02 02:36:24;;;;;;;43.43;15.73;;;2.80;99.90;;;;;;5004984;28;20307;-69
2022/12/02 02:38:50;;;;;;;36.90;14.30;;;2.80;99.90;;;;;;5014857;28;20868;-69
2022/12/02 02:41:16;;;;;;;36.83;14.20;;;2.80;99.90;;;;;;5014854;28;20207;-69
2022/12/02 02:43:41;;;;;;;41.83;15.17;;;2.80;99.90;;;;;;5014360;28;20175;-69
2022/12/02 02:46:08;;;;;;;30.67;15.33;;;2.80;99.90;;;;;;5018672;28;20209;-69
2022/12/02 02:48:34;;;;;;;38.00;15.10;;;2.70;99.90;;;;;;5012771;28;20262;-69
2022/12/02 02:51:01;;;;;;;27.37;15.70;;;2.70;99.90;;;;;;5013591;28;20417;-69
2022/12/02 02:53:27;;;;;;;30.53;13.47;;;2.70;99.90;;;;;;5011807;28;21016;-69
2022/12/02 02:55:53;;;;;;;42.47;16.43;;;2.70;99.90;;;;;;5012755;28;20418;-69
2022/12/02 02:58:21;;;;;;;32.80;14.10;;;2.70;99.90;;;;;;5010912;28;20199;-69
2022/12/02 03:00:53;;;;;;;27.47;15.03;;;2.70;99.90;;;;;;5020364;28;20439;-69
2022/12/02 03:03:22;;;;;;;34.57;14.80;;;2.70;99.90;;;;;;5013975;28;20437;-70
2022/12/02 03:05:51;;;;;;;27.60;14.03;;;2.70;99.90;;;;;;5025197;28;20429;-69
2022/12/02 03:08:18;;;;;;;34.30;15.30;;;2.70;99.90;;;;;;5011914;28;20511;-70
2022/12/02 03:10:44;;;;;;;40.67;16.27;;;2.70;99.90;;;;;;5014863;28;20462;-70
2022/12/02 03:13:09;;;;;;;44.37;17.53;;;2.70;99.90;;;;;;5010477;28;20426;-70
2022/12/02 03:15:35;;;;;;;47.53;16.47;;;2.70;99.90;;;;;;5025852;28;20873;-70
2022/12/02 03:18:01;;;;;;;41.07;17.43;;;2.70;99.90;;;;;;5012968;28;20253;-69
2022/12/02 03:20:27;;;;;;;44.37;17.40;;;2.70;99.90;;;;;;5011681;28;20195;-70
2022/12/02 03:22:53;;;;;;;40.80;16.57;;;2.70;99.90;;;;;;5016124;28;20454;-69
2022/12/02 03:25:19;;;;;;;42.37;14.53;;;2.60;99.90;;;;;;5012245;28;20179;-72
2022/12/02 03:27:45;;;;;;;36.97;16.07;;;2.60;99.90;;;;;;5013082;28;20225;-70
2022/12/02 03:30:11;;;;;;;39.40;17.20;;;2.60;99.90;;;;;;5014741;28;20417;-70
2022/12/02 03:32:37;;;;;;;43.57;17.77;;;2.70;99.90;;;;;;5018229;28;20521;-69
2022/12/02 03:35:04;;;;;;;46.67;17.60;;;2.60;99.90;;;;;;5013417;28;20414;-69
2022/12/02 03:37:29;;;;;;;43.67;16.63;;;2.60;99.90;;;;;;5005142;28;20418;-70
2022/12/02 03:39:55;;;;;;;36.43;17.13;;;2.60;99.90;;;;;;5013007;28;20761;-69
2022/12/02 03:42:21;;;;;;;38.77;16.80;;;2.60;99.90;;;;;;5012962;28;20211;-69
2022/12/02 03:44:48;;;;;;;40.13;16.10;;;2.70;99.90;;;;;;5015921;28;20183;-69
2022/12/02 03:47:14;;;;;;;33.77;16.37;;;2.70;99.90;;;;;;5015822;28;20265;-68
2022/12/02 03:49:39;;;;;;;46.93;16.60;;;2.70;99.90;;;;;;5014408;28;20512;-69
2022/12/02 03:52:05;;;;;;;45.60;16.83;;;2.70;99.90;;;;;;5017723;28;20190;-69
2022/12/02 03:54:31;;;;;;;45.70;16.83;;;2.70;99.90;;;;;;5012730;28;20206;-69
2022/12/02 03:56:56;;;;;;;34.63;16.10;;;2.70;99.90;;;;;;5009541;28;20203;-69
2022/12/02 03:59:26;;;;;;;42.67;15.73;;;2.70;99.90;;;;;;5022661;28;20194;-70
2022/12/02 04:01:52;;;;;;;41.40;18.57;;;2.60;99.90;;;;;;5023495;28;20258;-69
2022/12/02 04:04:18;;;;;;;45.53;17.63;;;2.70;99.90;;;;;;5027800;28;20468;-69
2022/12/02 04:06:43;;;;;;;33.03;15.53;;;2.70;99.90;;;;;;5024098;28;20924;-69
2022/12/02 04:09:09;;;;;;;39.87;13.17;;;2.70;99.90;;;;;;5019209;28;20183;-70
2022/12/02 04:11:34;;;;;;;33.17;15.67;;;2.70;99.90;;;;;;5018742;28;20644;-69
2022/12/02 04:14:00;;;;;;;34.43;16.17;;;2.70;99.90;;;;;;5032467;28;20218;-69
2022/12/02 04:16:26;;;;;;;40.97;14.27;;;2.70;99.90;;;;;;5019214;28;20206;-70
2022/12/02 04:18:51;;;;;;;44.03;16.90;;;2.70;99.90;;;;;;5015728;28;20588;-69
2022/12/02 04:21:17;;;;;;;39.57;15.00;;;2.70;99.90;;;;;;5011287;28;20218;-69
2022/12/02 04:23:42;;;;;;;44.53;16.70;;;2.70;99.90;;;;;;5011889;28;20217;-69
2022/12/02 04:26:08;;;;;;;31.57;14.10;;;2.70;99.90;;;;;;5011114;28;20209;-69
2022/12/02 04:28:34;;;;;;;30.63;15.20;;;2.70;99.90;;;;;;5016543;28;20196;-69
2022/12/02 04:31:00;;;;;;;36.30;14.80;;;2.70;99.90;;;;;;5011862;28;20442;-69
2022/12/02 04:33:25;;;;;;;34.10;14.73;;;2.70;99.90;;;;;;5010867;28;20539;-69
2022/12/02 04:35:51;;;;;;;32.47;15.50;;;2.70;99.90;;;;;;5010594;28;20187;-70
2022/12/02 04:38:16;;;;;;;34.83;15.30;;;2.70;99.90;;;;;;5013995;28;20587;-69
2022/12/02 04:40:42;;;;;;;36.40;14.50;;;2.70;99.90;;;;;;5024565;28;20205;-69
2022/12/02 04:43:08;;;;;;;34.57;14.07;;;2.70;99.90;;;;;;5010045;28;20215;-70
2022/12/02 04:45:33;;;;;;;33.07;15.07;;;2.70;99.90;;;;;;5011355;28;20187;-70
2022/12/02 04:47:59;;;;;;;41.43;15.33;;;2.70;99.90;;;;;;5022036;28;20301;-69
2022/12/02 04:50:25;;;;;;;29.80;14.77;;;2.70;99.90;;;;;;5021973;28;20613;-70
2022/12/02 04:52:50;;;;;;;30.00;14.00;;;2.70;99.90;;;;;;5010357;28;20215;-70
2022/12/02 04:55:16;;;;;;;49.93;14.83;;;2.70;99.90;;;;;;5003728;28;20197;-70
2022/12/02 04:57:41;;;;;;;45.27;15.50;;;2.70;99.90;;;;;;5010910;28;20628;-70
2022/12/02 05:00:08;;;;;;;36.37;15.07;;;2.70;99.90;;;;;;5009605;28;20187;-70
2022/12/02 05:02:34;;;;;;;44.97;15.63;;;2.70;99.90;;;;;;5006726;28;20205;-70
2022/12/02 05:04:59;;;;;;;36.83;16.13;;;2.70;99.90;;;;;;5017542;28;20421;-70
2022/12/02 05:07:25;;;;;;;38.87;14.60;;;2.70;99.90;;;;;;5009073;28;20210;-70
2022/12/02 05:09:50;;;;;;;44.53;17.83;;;2.70;99.90;;;;;;5020935;28;20178;-70
2022/12/02 05:12:16;;;;;;;37.17;14.97;;;2.70;99.90;;;;;;5013811;28;20648;-70
2022/12/02 05:14:42;;;;;;;40.73;15.40;;;2.70;99.90;;;;;;5022161;28;20202;-69
2022/12/02 05:17:07;;;;;;;31.10;14.40;;;2.60;99.90;;;;;;5005684;28;20184;-69
2022/12/02 05:19:33;;;;;;;37.40;15.13;;;2.60;99.90;;;;;;5010046;28;20191;-69
2022/12/02 05:21:59;;;;;;;37.70;15.00;;;2.60;99.90;;;;;;5010162;28;20203;-69
2022/12/02 05:24:24;;;;;;;37.43;15.77;;;2.60;99.90;;;;;;5007064;28;20187;-70
2022/12/02 05:26:50;;;;;;;36.43;14.97;;;2.60;99.90;;;;;;5009479;28;20179;-70
2022/12/02 05:29:16;;;;;;;45.97;14.67;;;2.60;99.90;;;;;;5010840;28;20671;-70
2022/12/02 05:31:41;;;;;;;31.80;14.90;;;2.60;99.90;;;;;;5008667;28;20186;-69
2022/12/02 05:34:07;;;;;;;40.30;16.97;;;2.60;99.90;;;;;;5011075;28;20337;-70
2022/12/02 05:36:32;;;;;;;40.87;16.77;;;2.60;99.90;;;;;;5012772;28;20194;-70
2022/12/02 05:38:58;;;;;;;37.80;15.50;;;2.60;99.90;;;;;;5024466;28;20244;-70
2022/12/02 05:41:23;;;;;;;45.07;17.97;;;2.60;99.90;;;;;;5018479;28;20211;-69
2022/12/02 05:43:49;;;;;;;37.37;15.83;;;2.60;99.90;;;;;;5013730;28;20228;-70
2022/12/02 05:46:18;;;;;;;42.90;16.00;;;2.60;99.90;;;;;;5011738;28;20573;-70
2022/12/02 05:48:45;;;;;;;38.13;17.17;;;2.60;99.90;;;;;;5013407;28;20183;-70
2022/12/02 05:51:16;;;;;;;33.60;15.27;;;2.60;99.90;;;;;;5031610;28;20465;-70
2022/12/02 05:53:43;;;;;;;45.27;18.10;;;2.60;99.90;;;;;;5044247;28;20420;-70
2022/12/02 05:56:34;;;;;;;36.40;14.93;;;2.60;99.90;;;;;;5029766;28;20443;-69
2022/12/02 05:59:04;;;;;;;35.83;15.33;;;2.60;99.90;;;;;;5037754;28;20530;-71
2022/12/02 06:01:32;;;;;;;44.97;15.60;;;2.60;99.90;;;;;;5037485;28;20487;-69
2022/12/02 06:03:58;;;;;;;52.57;18.10;;;2.60;99.90;;;;;;5025637;28;20850;-70
2022/12/02 06:06:29;;;;;;;40.07;17.73;;;2.60;99.90;;;;;;5007307;28;20439;-70
2022/12/02 06:08:56;;;;;;;45.90;18.33;;;2.70;99.90;;;;;;5017637;28;20425;-70
2022/12/02 06:11:28;;;;;;;44.07;17.70;;;2.70;99.90;;;;;;5021233;28;21021;-70
2022/12/02 06:14:00;;;;;;;43.30;17.20;;;2.60;99.90;;;;;;5008970;28;20811;-70
2022/12/02 06:16:28;;;;;;;38.50;18.40;;;2.60;99.90;;;;;;5008244;28;20473;-71
2022/12/02 06:18:54;;;;;;;60.17;22.40;;;2.60;99.90;;;;;;5020966;28;20441;-71
2022/12/02 06:21:21;;;;;;;48.63;16.60;;;2.60;99.90;;;;;;5015049;28;20469;-71
2022/12/02 06:23:50;;;;;;;55.03;15.90;;;2.60;99.90;;;;;;5012407;28;20434;-71
2022/12/02 06:26:17;;;;;;;43.67;17.67;;;2.60;99.90;;;;;;5013886;28;20459;-71
2022/12/02 06:28:45;;;;;;;40.17;13.70;;;2.70;99.90;;;;;;5013519;28;20480;-70
2022/12/02 06:31:19;;;;;;;67.20;16.57;;;2.70;99.90;;;;;;5014701;28;20452;-71
2022/12/02 06:33:48;;;;;;;40.53;15.30;;;2.70;99.90;;;;;;5014384;28;20552;-70
2022/12/02 06:36:19;;;;;;;42.13;16.50;;;2.70;99.90;;;;;;5018280;28;20477;-71
2022/12/02 06:38:49;;;;;;;47.50;18.10;;;2.70;99.90;;;;;;5008243;28;20417;-71
2022/12/02 06:41:27;;;;;;;43.50;16.23;;;2.70;99.90;;;;;;5010788;28;22410;-71
2022/12/02 06:46:51;;;;;;;45.13;15.50;;;2.60;99.90;;;;;;5007718;28;20449;-71
2022/12/02 06:49:22;;;;;;;34.60;14.73;;;2.60;99.90;;;;;;5013069;28;20438;-70
2022/12/02 06:52:05;;;;;;;48.53;18.30;;;2.60;99.90;;;;;;5014159;28;20187;-71
2022/12/02 06:54:31;;;;;;;38.37;15.63;;;2.60;99.90;;;;;;5022982;28;20476;-71
2022/12/02 06:56:59;;;;;;;51.70;17.90;;;2.70;99.90;;;;;;5013924;28;20924;-71
2022/12/02 06:59:26;;;;;;;36.03;15.00;;;2.70;99.90;;;;;;5015410;28;20450;-71
2022/12/02 07:01:54;;;;;;;39.80;17.27;;;2.70;99.90;;;;;;5012526;28;20857;-71
2022/12/02 07:04:46;;;;;;;50.43;17.37;;;2.70;99.90;;;;;;5010284;28;20540;-71
2022/12/02 07:07:21;;;;;;;37.27;15.23;;;2.70;99.90;;;;;;5018336;28;20448;-71
2022/12/02 07:09:53;;;;;;;36.37;15.27;;;2.60;99.90;;;;;;5015845;28;20423;-71
2022/12/02 07:12:29;;;;;;;49.40;17.07;;;2.70;99.90;;;;;;5021925;28;20520;-71
2022/12/02 07:14:56;;;;;;;36.93;14.40;;;2.60;99.90;;;;;;5019049;28;20550;-71
2022/12/02 07:17:25;;;;;;;40.70;16.80;;;2.60;99.90;;;;;;5021001;28;20886;-71
2022/12/02 07:20:05;;;;;;;40.87;16.90;;;2.60;99.90;;;;;;5017553;28;20464;-71
2022/12/02 07:22:40;;;;;;;45.87;16.23;;;2.60;99.90;;;;;;5012371;28;20492;-71
2022/12/02 07:25:08;;;;;;;40.40;16.13;;;2.60;99.90;;;;;;5015218;28;20459;-71
2022/12/02 07:27:38;;;;;;;44.27;17.10;;;2.60;99.90;;;;;;5007262;28;20418;-71
2022/12/02 07:30:25;;;;;;;39.20;16.23;;;2.60;99.90;;;;;;5009294;28;20431;-71
2022/12/02 07:32:51;;;;;;;42.10;16.13;;;2.70;99.90;;;;;;5007808;28;20988;-68
2022/12/02 07:35:18;;;;;;;37.67;16.27;;;2.70;99.90;;;;;;5011136;28;20474;-68
2022/12/02 07:37:43;;;;;;;40.90;16.03;;;2.70;99.90;;;;;;5016678;28;20519;-67
2022/12/02 07:40:10;;;;;;;46.10;17.93;;;2.70;99.90;;;;;;5019548;28;20960;-68
2022/12/02 07:42:36;;;;;;;47.23;17.93;;;2.70;99.90;;;;;;5011530;28;20217;-69
2022/12/02 07:45:02;;;;;;;37.83;14.90;;;2.80;99.90;;;;;;5009764;28;20442;-68
2022/12/02 07:47:27;;;;;;;43.77;15.40;;;2.70;99.90;;;;;;5012225;28;20183;-68
2022/12/02 07:49:53;;;;;;;43.10;16.80;;;2.70;99.90;;;;;;5011189;28;20623;-68
2022/12/02 07:52:18;;;;;;;51.57;16.60;;;2.60;99.90;;;;;;5025326;28;20237;-68
2022/12/02 07:54:44;;;;;;;44.53;16.70;;;2.70;99.90;;;;;;5031515;28;20257;-68
2022/12/02 07:57:10;;;;;;;59.80;16.83;;;2.60;99.90;;;;;;5022032;28;20214;-68
2022/12/02 07:59:35;;;;;;;41.33;15.83;;;2.70;99.90;;;;;;5010697;28;20567;-68
2022/12/02 08:02:01;;;;;;;39.53;14.67;;;2.70;99.90;;;;;;5016761;28;20245;-68
2022/12/02 08:04:26;;;;;;;34.00;14.97;;;2.70;99.90;;;;;;5030181;28;20525;-68
2022/12/02 08:06:52;;;;;;;49.80;16.27;;;2.70;99.90;;;;;;5021147;28;20217;-68
2022/12/02 08:09:17;;;;;;;46.00;18.40;;;2.70;99.90;;;;;;4986610;28;20191;-68
2022/12/02 08:11:43;;;;;;;50.40;17.90;;;2.70;99.90;;;;;;5012420;28;20277;-68
2022/12/02 08:14:08;;;;;;;54.77;16.77;;;2.60;99.90;;;;;;5018441;28;20201;-68
2022/12/02 08:16:34;;;;;;;48.20;17.77;;;2.70;99.90;;;;;;5008497;28;20282;-68
2022/12/02 08:19:00;;;;;;;59.80;18.60;;;2.60;99.90;;;;;;5011372;28;20193;-68
2022/12/02 08:21:26;;;;;;;53.80;17.83;;;2.70;99.90;;;;;;5019233;28;20249;-67
2022/12/02 08:23:52;;;;;;;37.23;15.47;;;2.60;99.90;;;;;;5006657;28;20215;-68
2022/12/02 08:26:18;;;;;;;37.57;15.80;;;2.70;99.90;;;;;;5015161;28;20829;-68
2022/12/02 08:28:43;;;;;;;42.27;16.37;;;2.60;99.90;;;;;;5028282;28;20635;-68
2022/12/02 08:31:09;;;;;;;29.67;14.67;;;2.70;99.90;;;;;;5013589;28;20194;-67
2022/12/02 08:33:35;;;;;;;47.27;16.60;;;2.70;99.90;;;;;;5007418;28;20953;-67
2022/12/02 08:36:00;;;;;;;40.30;14.93;;;2.60;99.90;;;;;;5014523;28;20183;-68
2022/12/02 08:38:26;;;;;;;51.57;17.90;;;2.60;99.90;;;;;;5013235;28;20191;-68
2022/12/02 08:40:52;;;;;;;42.80;17.47;;;2.60;99.90;;;;;;5014514;28;20608;-68
2022/12/02 08:43:17;;;;;;;46.80;14.40;;;2.60;99.90;;;;;;5018191;28;20219;-67
2022/12/02 08:45:43;;;;;;;41.43;14.33;;;2.60;99.90;;;;;;5015487;28;20221;-68
2022/12/02 08:48:09;;;;;;;36.23;16.47;;;2.60;99.90;;;;;;5021581;28;20182;-67
2022/12/02 08:50:34;;;;;;;33.10;15.83;;;2.60;99.90;;;;;;5022299;28;20186;-67
2022/12/02 08:53:00;;;;;;;32.87;13.10;;;2.60;99.90;;;;;;5007797;28;20201;-68
2022/12/02 08:55:26;;;;;;;44.27;16.00;;;2.60;99.90;;;;;;5014820;28;20226;-68
2022/12/02 08:57:52;;;;;;;35.07;15.20;;;2.60;99.90;;;;;;5023326;28;20213;-68
2022/12/02 09:00:18;;;;;;;40.37;14.80;;;2.60;99.90;;;;;;5029468;28;20799;-68
2022/12/02 09:02:44;;;;;;;49.83;18.93;;;2.70;99.90;;;;;;5029643;28;20217;-68
2022/12/02 09:05:10;;;;;;;40.27;17.30;;;2.60;99.90;;;;;;5018125;28;20449;-68
2022/12/02 09:07:35;;;;;;;42.63;16.30;;;2.70;99.90;;;;;;5012560;28;20191;-68
2022/12/02 09:10:01;;;;;;;57.60;14.50;;;2.70;99.90;;;;;;4997822;28;20511;-68
2022/12/02 09:12:27;;;;;;;37.07;12.80;;;2.70;99.90;;;;;;5014426;28;20186;-68
2022/12/02 09:14:52;;;;;;;54.27;14.97;;;2.70;99.90;;;;;;5011933;28;20203;-68
2022/12/02 09:17:18;;;;;;;35.67;14.53;;;2.70;99.90;;;;;;5010388;28;20202;-68
2022/12/02 09:19:43;;;;;;;40.80;14.63;;;2.70;99.90;;;;;;5004442;28;20187;-68
2022/12/02 09:22:09;;;;;;;41.13;13.27;;;2.70;99.90;;;;;;5007088;28;20540;-69
2022/12/02 09:24:35;;;;;;;36.23;13.60;;;2.70;99.90;;;;;;5011103;28;20187;-70
2022/12/02 09:27:00;;;;;;;42.00;14.70;;;2.70;99.90;;;;;;5012043;28;20186;-68
2022/12/02 09:29:26;;;;;;;38.97;13.90;;;2.70;99.90;;;;;;5012498;28;20279;-68
2022/12/02 09:31:52;;;;;;;37.23;13.70;;;2.70;99.90;;;;;;5014762;28;20531;-69
2022/12/02 09:34:18;;;;;;;40.47;16.97;;;2.80;99.90;;;;;;5013474;28;20301;-69
2022/12/02 09:36:43;;;;;;;43.63;14.87;;;2.80;99.90;;;;;;5018892;28;20191;-66
2022/12/02 09:39:09;;;;;;;41.70;15.33;;;2.80;99.90;;;;;;5013804;28;20460;-66
2022/12/02 09:41:36;;;;;;;30.93;14.40;;;2.90;99.90;;;;;;5021444;28;20218;-69
2022/12/02 09:44:03;;;;;;;35.13;13.30;;;2.90;99.90;;;;;;5012332;28;20210;-69
2022/12/02 09:46:30;;;;;;;28.63;13.17;;;2.90;99.90;;;;;;5014669;28;20516;-69
2022/12/02 09:48:56;;;;;;;40.37;14.80;;;2.90;99.90;;;;;;5014277;28;20425;-69
2022/12/02 09:51:22;;;;;;;35.33;14.53;;;2.90;99.90;;;;;;5014602;28;20472;-68
2022/12/02 09:53:47;;;;;;;35.03;12.40;;;3.00;99.90;;;;;;5004109;28;20192;-68
2022/12/02 09:56:19;;;;;;;44.67;13.17;;;2.90;99.90;;;;;;5014558;28;20187;-69
2022/12/02 09:58:54;;;;;;;34.53;14.10;;;3.00;99.90;;;;;;5008082;28;20186;-69
2022/12/02 10:01:19;;;;;;;44.97;14.03;;;3.00;99.90;;;;;;5010590;28;20472;-69
2022/12/02 10:03:48;;;;;;;40.10;15.00;;;3.00;99.90;;;;;;5014876;28;21197;-69
2022/12/02 10:06:25;;;;;;;38.57;13.40;;;3.00;99.90;;;;;;5020192;28;20266;-68
2022/12/02 10:08:53;;;;;;;43.03;11.57;;;3.00;99.90;;;;;;5015649;28;20568;-69
2022/12/02 10:11:27;;;;;;;45.07;13.03;;;3.00;99.90;;;;;;5011217;28;20434;-69
2022/12/02 10:13:55;;;;;;;26.23;11.03;;;3.00;99.90;;;;;;5016198;28;20421;-69
2022/12/02 10:16:21;;;;;;;30.10;10.93;;;3.00;99.90;;;;;;5010558;28;20489;-68
2022/12/02 10:18:47;;;;;;;27.27;12.27;;;2.90;99.90;;;;;;5010399;28;20430;-68
2022/12/02 10:21:13;;;;;;;40.53;11.87;;;3.00;99.90;;;;;;5011709;28;20441;-68
2022/12/02 10:24:00;;;;;;;36.57;11.50;;;2.90;99.90;;;;;;5008453;28;20434;-69
2022/12/02 10:26:26;;;;;;;38.70;9.90;;;3.00;99.90;;;;;;5011702;28;20707;-68
2022/12/02 10:29:07;;;;;;;29.90;11.97;;;2.90;99.90;;;;;;5014970;28;20981;-69
2022/12/02 10:31:33;;;;;;;34.73;12.03;;;2.90;99.90;;;;;;5007579;28;20456;-69
2022/12/02 10:34:05;;;;;;;38.13;12.27;;;3.00;99.90;;;;;;5007648;28;20441;-68
2022/12/02 10:36:31;;;;;;;34.37;11.97;;;3.00;99.90;;;;;;5010573;28;20179;-68
2022/12/02 10:39:21;;;;;;;35.33;13.63;;;2.90;99.90;;;;;;5007887;28;21029;-69
2022/12/02 10:42:08;;;;;;;22.60;10.87;;;2.90;99.90;;;;;;5008189;28;20203;-68
2022/12/02 10:44:43;;;;;;;27.07;10.17;;;3.00;99.90;;;;;;5012592;28;20418;-68
2022/12/02 10:47:13;;;;;;;26.93;8.80;;;3.00;99.90;;;;;;5022562;28;20442;-68
2022/12/02 10:49:44;;;;;;;32.77;12.47;;;3.10;99.90;;;;;;5012461;28;20434;-68
2022/12/02 10:52:10;;;;;;;25.90;9.30;;;3.10;99.90;;;;;;5015820;28;20448;-68
2022/12/02 10:54:39;;;;;;;35.10;12.47;;;3.00;99.90;;;;;;5027241;28;20428;-68
2022/12/02 10:57:05;;;;;;;26.13;11.73;;;3.10;99.90;;;;;;5016146;28;20472;-67
2022/12/02 10:59:32;;;;;;;24.37;9.63;;;3.00;99.90;;;;;;5016045;28;20520;-68
2022/12/02 11:01:59;;;;;;;22.03;9.90;;;3.00;99.90;;;;;;5005216;28;20481;-68
2022/12/02 11:04:27;;;;;;;25.30;9.47;;;3.00;99.90;;;;;;5015414;28;20536;-68
2022/12/02 11:06:53;;;;;;;18.30;8.33;;;3.00;99.90;;;;;;5006893;28;20437;-68
2022/12/02 11:09:25;;;;;;;26.77;8.30;;;3.10;99.90;;;;;;5009889;28;21780;-68
2022/12/02 11:11:51;;;;;;;25.73;9.90;;;3.00;99.90;;;;;;5012776;28;20440;-68
2022/12/02 11:14:38;;;;;;;21.23;9.17;;;3.00;99.90;;;;;;5016187;28;20460;-68
2022/12/02 11:17:07;;;;;;;21.23;9.87;;;3.00;99.90;;;;;;5020062;28;20417;-68
2022/12/02 11:19:32;;;;;;;19.27;9.50;;;3.10;99.90;;;;;;5011134;28;20434;-68
2022/12/02 11:21:58;;;;;;;22.23;8.17;;;3.00;99.90;;;;;;5009953;28;20477;-69
2022/12/02 11:24:33;;;;;;;20.50;8.60;;;3.00;99.90;;;;;;5005777;28;20179;-69
2022/12/02 11:26:58;;;;;;;13.27;6.40;;;3.00;99.90;;;;;;5007705;28;20552;-69
2022/12/02 11:29:34;;;;;;;18.00;6.87;;;3.00;99.90;;;;;;5009761;28;20440;-68
2022/12/02 11:32:00;;;;;;;20.73;8.53;;;2.90;99.90;;;;;;5011618;28;20216;-68
2022/12/02 11:34:41;;;;;;;26.17;10.07;;;2.90;99.90;;;;;;5015784;28;20430;-68
2022/12/02 11:37:27;;;;;;;16.90;7.93;;;2.90;99.90;;;;;;5021085;28;20187;-68
2022/12/02 11:40:10;;;;;;;26.53;8.30;;;2.90;99.90;;;;;;5005162;28;20450;-68
2022/12/02 11:42:40;;;;;;;22.30;8.23;;;2.90;99.90;;;;;;5001367;28;20457;-69
2022/12/02 11:45:15;;;;;;;18.23;7.47;;;2.90;99.90;;;;;;5012361;28;20433;-68
2022/12/02 11:47:53;;;;;;;15.37;8.40;;;2.90;99.90;;;;;;4999329;28;21214;-68
2022/12/02 11:50:28;;;;;;;21.23;9.00;;;2.80;99.90;;;;;;5004486;28;20448;-68
2022/12/02 11:52:58;;;;;;;16.00;7.23;;;2.80;99.90;;;;;;5005948;28;20445;-68
2022/12/02 11:55:34;;;;;;;15.93;6.90;;;2.80;99.90;;;;;;5005179;28;20450;-66
2022/12/02 11:58:00;;;;;;;15.83;7.53;;;2.80;99.90;;;;;;5002603;28;20453;-68
2022/12/02 12:00:34;;;;;;;22.47;7.60;;;2.80;99.90;;;;;;5005280;28;20438;-66
2022/12/02 12:03:14;;;;;;;14.73;7.00;;;2.80;99.90;;;;;;5006208;28;20488;-68
2022/12/02 12:05:43;;;;;;;24.37;7.93;;;2.80;99.90;;;;;;5000771;28;20969;-68
2022/12/02 12:08:08;;;;;;;16.73;7.03;;;2.80;99.90;;;;;;5009176;28;20446;-68
2022/12/02 12:10:38;;;;;;;13.77;6.77;;;2.80;99.90;;;;;;5016486;28;20472;-66
2022/12/02 12:13:14;;;;;;;7.80;5.53;;;2.90;99.90;;;;;;5007936;28;20191;-66
2022/12/02 12:15:58;;;;;;;15.13;6.37;;;2.80;99.90;;;;;;5008851;28;20449;-66
2022/12/02 12:18:44;;;;;;;13.60;6.00;;;2.80;99.90;;;;;;5009382;28;20452;-68
2022/12/02 12:21:11;;;;;;;9.03;4.67;;;2.80;99.90;;;;;;5010521;28;20434;-66
2022/12/02 12:23:43;;;;;;;17.03;5.93;;;2.80;99.90;;;;;;5014342;28;20445;-66
2022/12/02 12:26:30;;;;;;;13.67;6.23;;;2.80;99.90;;;;;;5010940;28;20431;-66
2022/12/02 12:29:00;;;;;;;19.03;6.17;;;2.80;99.90;;;;;;5008326;28;20424;-66
2022/12/02 12:31:25;;;;;;;23.27;7.70;;;2.80;99.90;;;;;;5009774;28;20418;-66
2022/12/02 12:33:51;;;;;;;13.23;6.47;;;2.80;99.90;;;;;;5007937;28;20418;-66
2022/12/02 12:36:17;;;;;;;10.30;4.97;;;2.80;99.90;;;;;;5016627;28;20580;-66
2022/12/02 12:38:43;;;;;;;8.53;5.23;;;2.80;99.90;;;;;;5013136;28;20993;-66
2022/12/02 12:41:08;;;;;;;15.67;6.00;;;2.80;99.90;;;;;;5010176;28;20191;-67
2022/12/02 12:43:34;;;;;;;13.73;4.70;;;2.90;99.90;;;;;;5009040;28;20206;-67
2022/12/02 12:45:59;;;;;;;11.03;4.53;;;2.80;99.90;;;;;;5006319;28;20786;-68
2022/12/02 12:48:25;;;;;;;10.70;4.27;;;2.80;99.90;;;;;;5013492;28;20270;-67